createdAt,value
2023-03-08T00:02:18.330Z,11.83
2023-03-08T00:04:45.710Z,11.53
2023-03-08T00:07:12.459Z,12.77
2023-03-08T00:09:39.248Z,13.23
2023-03-08T00:12:07.518Z,13.20
2023-03-08T00:14:34.754Z,8.40
2023-03-08T00:17:02.711Z,7.73
2023-03-08T00:19:29.684Z,10.17
2023-03-08T00:21:56.464Z,13.33
2023-03-08T00:26:54.121Z,9.53
2023-03-08T00:29:21.040Z,14.93
2023-03-08T00:31:47.824Z,10.10
2023-03-08T00:34:14.922Z,18.97
2023-03-08T00:36:42.135Z,10.40
2023-03-08T00:39:10.671Z,12.50
2023-03-08T00:41:38.111Z,12.13
2023-03-08T00:44:04.963Z,14.40
2023-03-08T00:46:33.582Z,10.93
2023-03-08T00:49:00.698Z,13.13
2023-03-08T00:51:27.544Z,10.93
2023-03-08T00:53:54.509Z,15.20
2023-03-08T00:56:21.244Z,11.80
2023-03-08T00:58:47.968Z,14.17
2023-03-08T01:01:17.662Z,12.87
2023-03-08T01:03:44.479Z,13.00
2023-03-08T01:06:14.052Z,16.03
2023-03-08T01:08:42.181Z,14.63
2023-03-08T01:11:24.888Z,17.80
2023-03-08T01:13:53.053Z,13.77
2023-03-08T01:16:24.164Z,15.07
2023-03-08T01:18:51.389Z,14.70
2023-03-08T01:21:18.486Z,14.90
2023-03-08T01:23:45.362Z,13.23
2023-03-08T01:26:14.847Z,15.20
2023-03-08T01:28:42.091Z,14.30
2023-03-08T01:31:17.090Z,12.30
2023-03-08T01:33:44.828Z,14.20
2023-03-08T01:36:15.246Z,14.97
2023-03-08T01:38:42.454Z,19.57
2023-03-08T01:41:19.018Z,12.10
2023-03-08T01:43:46.370Z,10.50
2023-03-08T01:46:32.312Z,12.77
2023-03-08T01:49:09.771Z,20.23
2023-03-08T01:51:45.150Z,15.93
2023-03-08T01:54:20.874Z,13.90
2023-03-08T01:56:50.817Z,12.97
2023-03-08T01:59:20.809Z,12.63
2023-03-08T02:01:47.637Z,15.40
2023-03-08T02:04:14.551Z,14.83
2023-03-08T02:06:42.194Z,15.63
2023-03-08T02:09:09.179Z,12.57
2023-03-08T02:11:38.713Z,16.13
2023-03-08T02:14:05.744Z,14.60
2023-03-08T02:16:32.785Z,14.30
2023-03-08T02:19:01.985Z,16.50
2023-03-08T02:21:30.343Z,15.77
2023-03-08T02:24:03.140Z,20.10
2023-03-08T02:26:29.862Z,20.83
2023-03-08T02:28:56.570Z,20.57
2023-03-08T02:31:23.314Z,17.37
2023-03-08T02:33:50.055Z,19.07
2023-03-08T02:36:16.767Z,18.23
2023-03-08T02:38:46.360Z,18.13
2023-03-08T02:41:13.105Z,18.03
2023-03-08T02:43:39.878Z,17.23
2023-03-08T02:46:06.641Z,18.57
2023-03-08T02:48:33.455Z,16.40
2023-03-08T02:51:00.272Z,17.63
2023-03-08T02:53:27.114Z,20.53
2023-03-08T02:55:53.887Z,16.33
2023-03-08T02:58:20.601Z,13.87
2023-03-08T03:00:47.324Z,14.20
2023-03-08T03:03:14.046Z,13.60
2023-03-08T03:05:43.202Z,14.63
2023-03-08T03:08:11.376Z,20.10
2023-03-08T03:13:06.496Z,15.90
2023-03-08T03:15:37.194Z,16.70
2023-03-08T03:18:05.699Z,15.73
2023-03-08T03:20:33.698Z,16.60
2023-03-08T03:23:00.597Z,10.47
2023-03-08T03:25:27.536Z,22.83
2023-03-08T03:27:55.358Z,14.07
2023-03-08T03:30:22.629Z,14.53
2023-03-08T03:32:49.380Z,14.90
2023-03-08T03:35:16.180Z,11.87
2023-03-08T03:37:42.950Z,17.20
2023-03-08T03:40:11.969Z,11.70
2023-03-08T03:42:38.811Z,12.33
2023-03-08T03:45:06.113Z,11.27
2023-03-08T03:47:32.854Z,15.40
2023-03-08T03:49:59.626Z,9.93
2023-03-08T03:52:26.336Z,13.20
2023-03-08T03:54:53.137Z,12.87
2023-03-08T03:57:20.832Z,12.40
2023-03-08T03:59:47.700Z,10.33
2023-03-08T04:02:14.544Z,15.23
2023-03-08T04:04:41.370Z,12.20
2023-03-08T04:07:08.174Z,19.30
2023-03-08T04:09:36.062Z,11.53
2023-03-08T04:12:05.779Z,8.70
2023-03-08T04:14:32.686Z,10.30
2023-03-08T04:16:59.542Z,14.40
2023-03-08T04:19:26.432Z,14.40
2023-03-08T04:21:53.251Z,8.60
2023-03-08T04:24:20.011Z,21.27
2023-03-08T04:26:46.786Z,13.70
2023-03-08T04:29:13.647Z,10.50
2023-03-08T04:31:40.545Z,13.30
2023-03-08T04:34:08.366Z,16.83
2023-03-08T04:36:35.246Z,13.73
2023-03-08T04:39:02.090Z,17.20
2023-03-08T04:41:28.821Z,9.10
2023-03-08T04:43:57.322Z,13.07
2023-03-08T04:46:27.073Z,13.03
2023-03-08T04:48:55.763Z,12.40
2023-03-08T04:51:25.421Z,10.33
2023-03-08T04:53:52.514Z,13.97
2023-03-08T04:56:19.565Z,12.80
2023-03-08T04:58:47.024Z,11.43
2023-03-08T05:01:16.747Z,13.33
2023-03-08T05:03:44.550Z,15.40
2023-03-08T05:06:14.080Z,12.10
2023-03-08T05:08:41.557Z,12.33
2023-03-08T05:11:08.919Z,15.20
2023-03-08T05:13:38.578Z,12.30
2023-03-08T05:16:07.980Z,10.80
2023-03-08T05:18:35.804Z,11.37
2023-03-08T05:21:05.505Z,16.93
2023-03-08T05:23:32.677Z,15.23
2023-03-08T05:26:01.694Z,10.83
2023-03-08T05:28:32.154Z,15.23
2023-03-08T05:31:10.985Z,13.43
2023-03-08T05:33:38.547Z,13.33
2023-03-08T05:36:06.899Z,14.43
2023-03-08T05:38:34.129Z,12.60
2023-03-08T05:41:02.198Z,13.10
2023-03-08T05:43:29.218Z,14.70
2023-03-08T05:45:58.424Z,16.33
2023-03-08T05:48:25.952Z,11.63
2023-03-08T05:50:53.512Z,17.37
2023-03-08T05:53:21.255Z,17.03
2023-03-08T05:55:48.147Z,24.03
2023-03-08T05:58:15.666Z,17.93
2023-03-08T06:00:42.484Z,18.00
2023-03-08T06:03:09.423Z,21.80
2023-03-08T06:05:36.324Z,16.07
2023-03-08T06:08:03.288Z,22.43
2023-03-08T06:10:30.304Z,16.20
2023-03-08T06:12:57.071Z,18.37
2023-03-08T06:15:24.140Z,14.67
2023-03-08T06:17:53.830Z,15.53
2023-03-08T06:20:21.109Z,19.33
2023-03-08T06:22:47.955Z,10.97
2023-03-08T06:25:14.775Z,15.03
2023-03-08T06:27:41.630Z,14.93
2023-03-08T06:30:09.054Z,10.70
2023-03-08T06:32:37.669Z,12.40
2023-03-08T06:35:04.961Z,16.77
2023-03-08T06:37:35.610Z,12.50
2023-03-08T06:40:03.808Z,7.17
2023-03-08T06:42:40.773Z,5.97
2023-03-08T06:45:09.520Z,10.77
2023-03-08T06:47:36.322Z,6.70
2023-03-08T06:50:03.513Z,7.77
2023-03-08T06:52:37.487Z,9.97
2023-03-08T06:55:05.303Z,10.23
2023-03-08T06:57:32.146Z,9.63
2023-03-08T06:59:58.974Z,9.83
2023-03-08T07:02:25.750Z,16.70
2023-03-08T07:04:52.459Z,12.03
2023-03-08T07:07:19.345Z,8.90
2023-03-08T07:09:46.112Z,11.00
2023-03-08T07:12:12.858Z,13.10
2023-03-08T07:14:39.658Z,10.67
2023-03-08T07:17:06.390Z,13.60
2023-03-08T07:19:33.121Z,18.33
2023-03-08T07:21:59.852Z,15.67
2023-03-08T07:24:26.582Z,20.03
2023-03-08T07:26:53.318Z,20.30
2023-03-08T07:29:20.113Z,32.00
2023-03-08T07:31:46.919Z,15.17
2023-03-08T07:34:13.694Z,18.60
2023-03-08T07:36:40.755Z,17.60
2023-03-08T07:39:07.544Z,18.30
2023-03-08T07:41:35.338Z,13.93
2023-03-08T07:44:02.622Z,28.27
2023-03-08T07:46:29.906Z,11.73
2023-03-08T07:48:57.303Z,13.20
2023-03-08T07:51:24.540Z,16.67
2023-03-08T07:53:52.732Z,12.33
2023-03-08T07:56:19.531Z,10.20
2023-03-08T07:58:46.845Z,8.60
2023-03-08T08:01:14.401Z,8.57
2023-03-08T08:03:41.370Z,8.97
2023-03-08T08:06:08.628Z,10.67
2023-03-08T08:08:35.462Z,13.37
2023-03-08T08:11:02.465Z,11.90
2023-03-08T08:13:29.233Z,13.43
2023-03-08T08:16:01.404Z,14.27
2023-03-08T08:18:28.941Z,13.87
2023-03-08T08:21:06.980Z,18.97
2023-03-08T08:23:34.523Z,16.20
2023-03-08T08:26:05.172Z,21.03
2023-03-08T08:28:32.419Z,14.80
2023-03-08T08:31:08.387Z,14.23
2023-03-08T08:33:35.619Z,14.57
2023-03-08T08:36:05.782Z,21.93
2023-03-08T08:38:32.625Z,10.93
2023-03-08T08:41:04.286Z,15.13
2023-03-08T08:43:32.654Z,12.20
2023-03-08T08:45:59.778Z,12.50
2023-03-08T08:48:27.691Z,10.77
2023-03-08T08:50:54.783Z,11.63
2023-03-08T08:53:22.171Z,9.50
2023-03-08T08:55:49.023Z,12.10
2023-03-08T08:58:15.791Z,14.00
2023-03-08T09:00:42.915Z,12.77
2023-03-08T09:03:09.778Z,13.60
2023-03-08T09:05:39.966Z,12.57
2023-03-08T09:08:06.948Z,11.87
2023-03-08T09:10:37.988Z,10.20
2023-03-08T09:13:05.290Z,10.60
2023-03-08T09:15:32.207Z,6.83
2023-03-08T09:17:59.072Z,6.57
2023-03-08T09:20:25.852Z,8.17
2023-03-08T09:22:52.671Z,5.20
2023-03-08T09:25:20.921Z,8.10
2023-03-08T09:27:49.294Z,13.00
2023-03-08T09:30:17.548Z,34.80
2023-03-08T09:32:44.667Z,11.57
2023-03-08T09:35:11.477Z,12.00
2023-03-08T09:37:38.356Z,15.60
2023-03-08T09:40:11.507Z,13.43
2023-03-08T09:42:38.636Z,9.20
2023-03-08T09:45:14.217Z,13.00
2023-03-08T09:48:05.170Z,9.23
2023-03-08T09:50:43.637Z,9.10
2023-03-08T09:53:24.469Z,8.47
2023-03-08T09:56:00.036Z,8.60
2023-03-08T09:58:44.078Z,7.53
2023-03-08T10:01:28.870Z,9.20
2023-03-08T10:04:01.504Z,7.47
2023-03-08T10:06:39.186Z,7.07
2023-03-08T10:09:31.820Z,6.23
2023-03-08T10:12:13.489Z,6.80
2023-03-08T10:14:45.252Z,4.57
2023-03-08T10:17:20.149Z,5.03
2023-03-08T10:20:14.654Z,8.13
2023-03-08T10:22:42.872Z,6.00
2023-03-08T10:25:23.050Z,6.00
2023-03-08T10:27:52.788Z,7.43
2023-03-08T10:30:23.342Z,5.77
2023-03-08T10:32:56.357Z,4.57
2023-03-08T10:35:38.918Z,9.17
2023-03-08T10:38:16.229Z,6.47
2023-03-08T10:40:43.157Z,4.60
2023-03-08T10:43:19.855Z,6.53
2023-03-08T10:45:56.884Z,7.93
2023-03-08T10:48:23.654Z,5.87
2023-03-08T10:50:59.666Z,13.40
2023-03-08T10:53:29.450Z,6.70
2023-03-08T10:55:59.147Z,6.47
2023-03-08T10:58:38.250Z,6.67
2023-03-08T11:01:07.879Z,11.27
2023-03-08T11:03:34.907Z,8.43
2023-03-08T11:06:04.902Z,6.00
2023-03-08T11:08:37.822Z,7.77
2023-03-08T11:11:13.476Z,9.17
2023-03-08T11:13:47.120Z,8.70
2023-03-08T11:16:25.051Z,9.07
2023-03-08T11:19:07.676Z,9.60
2023-03-08T11:21:52.373Z,8.67
2023-03-08T11:27:11.443Z,9.60
2023-03-08T11:30:03.524Z,9.50
2023-03-08T11:32:48.874Z,12.53
2023-03-08T11:35:56.244Z,9.50
2023-03-08T11:38:25.966Z,9.17
2023-03-08T11:41:20.076Z,9.77
2023-03-08T11:43:59.069Z,10.60
2023-03-08T11:46:46.855Z,8.80
2023-03-08T11:49:38.527Z,11.53
2023-03-08T11:52:20.388Z,7.10
2023-03-08T11:55:13.487Z,8.27
2023-03-08T11:57:47.235Z,7.97
2023-03-08T12:00:30.684Z,9.57
2023-03-08T12:03:03.391Z,8.80
2023-03-08T12:05:35.681Z,8.27
2023-03-08T12:08:10.034Z,9.57
2023-03-08T12:10:51.110Z,8.07
2023-03-08T12:13:39.534Z,8.90
2023-03-08T12:16:18.293Z,8.57
2023-03-08T12:19:32.791Z,9.10
2023-03-08T12:22:07.021Z,5.90
2023-03-08T12:24:46.516Z,8.90
2023-03-08T12:27:20.640Z,13.63
2023-03-08T12:29:59.328Z,9.77
2023-03-08T12:32:27.361Z,10.00
2023-03-08T12:35:07.152Z,8.80
2023-03-08T12:37:34.418Z,9.27
2023-03-08T12:40:21.844Z,10.47
2023-03-08T12:42:49.536Z,9.47
2023-03-08T12:45:19.089Z,11.47
2023-03-08T12:48:04.769Z,7.33
2023-03-08T12:50:37.076Z,9.47
2023-03-08T12:53:32.586Z,8.93
2023-03-08T12:56:02.326Z,10.57
2023-03-08T12:58:30.814Z,10.00
2023-03-08T13:01:07.108Z,10.53
2023-03-08T13:03:41.299Z,8.73
2023-03-08T13:06:23.036Z,9.30
2023-03-08T13:08:58.396Z,8.67
2023-03-08T13:11:37.283Z,9.20
2023-03-08T13:14:06.038Z,11.43
2023-03-08T13:16:38.797Z,8.17
2023-03-08T13:19:17.425Z,10.70
2023-03-08T13:21:57.008Z,9.50
2023-03-08T13:24:42.954Z,10.80
2023-03-08T13:27:45.751Z,11.60
2023-03-08T13:30:47.435Z,9.07
2023-03-08T13:33:26.036Z,9.03
2023-03-08T13:35:56.720Z,9.37
2023-03-08T13:38:24.909Z,11.10
2023-03-08T13:40:53.921Z,10.10
2023-03-08T13:43:27.030Z,9.37
2023-03-08T13:45:57.220Z,9.53
2023-03-08T13:48:27.319Z,9.13
2023-03-08T13:50:54.045Z,14.27
2023-03-08T13:53:24.574Z,8.53
2023-03-08T13:55:57.655Z,9.80
2023-03-08T13:58:45.769Z,10.10
2023-03-08T14:01:18.878Z,15.80
2023-03-08T14:03:46.757Z,11.60
2023-03-08T14:06:23.944Z,12.97
2023-03-08T14:08:51.262Z,13.80
2023-03-08T14:11:24.804Z,9.70
2023-03-08T14:13:54.841Z,9.03
2023-03-08T14:16:32.556Z,12.47
2023-03-08T14:19:09.666Z,13.00
2023-03-08T14:21:36.714Z,8.80
2023-03-08T14:27:03.705Z,13.27
2023-03-08T14:29:33.235Z,12.47
2023-03-08T14:32:26.793Z,14.10
2023-03-08T14:35:20.262Z,11.43
2023-03-08T14:37:48.086Z,12.77
2023-03-08T14:40:26.293Z,11.20
2023-03-08T14:42:56.264Z,13.47
2023-03-08T14:45:40.671Z,25.30
2023-03-08T14:48:32.015Z,10.70
2023-03-08T14:51:00.102Z,11.90
2023-03-08T14:53:39.088Z,15.43
2023-03-08T14:56:27.720Z,18.03
2023-03-08T14:58:54.720Z,14.57
2023-03-08T15:01:32.423Z,16.23
2023-03-08T15:03:59.620Z,16.87
2023-03-08T15:06:31.386Z,18.13
2023-03-08T15:09:00.050Z,22.67
2023-03-08T15:11:31.416Z,21.43
2023-03-08T15:14:01.660Z,21.50
2023-03-08T15:16:28.537Z,22.27
2023-03-08T15:18:55.456Z,21.77
2023-03-08T15:21:25.321Z,28.80
2023-03-08T15:23:52.550Z,22.27
2023-03-08T15:26:25.027Z,24.50
2023-03-08T15:28:51.897Z,26.90
2023-03-08T15:31:18.721Z,29.87
2023-03-08T15:33:45.643Z,26.13
2023-03-08T15:36:17.826Z,49.40
2023-03-08T15:38:45.190Z,34.27
2023-03-08T15:41:13.511Z,27.30
2023-03-08T15:43:40.489Z,33.10
2023-03-08T15:46:09.807Z,30.53
2023-03-08T15:48:36.522Z,29.03
2023-03-08T15:51:03.473Z,24.57
2023-03-08T15:53:35.680Z,30.90
2023-03-08T15:56:03.094Z,31.23
2023-03-08T15:58:29.894Z,32.90
2023-03-08T16:00:56.742Z,34.00
2023-03-08T16:03:30.538Z,40.93
2023-03-08T16:05:58.730Z,35.53
2023-03-08T16:08:25.932Z,31.37
2023-03-08T16:10:52.780Z,31.67
2023-03-08T16:13:22.076Z,34.27
2023-03-08T16:15:49.529Z,41.33
2023-03-08T16:18:16.585Z,29.67
2023-03-08T16:20:46.185Z,38.57
2023-03-08T16:23:13.106Z,39.33
2023-03-08T16:25:42.486Z,42.13
2023-03-08T16:28:10.471Z,35.70
2023-03-08T16:30:39.256Z,40.40
2023-03-08T16:33:06.043Z,37.67
2023-03-08T16:35:32.791Z,33.47
2023-03-08T16:37:59.581Z,41.73
2023-03-08T16:40:31.128Z,43.00
2023-03-08T16:42:58.259Z,60.73
2023-03-08T16:45:25.165Z,42.70
2023-03-08T16:47:51.921Z,42.10
2023-03-08T16:50:18.724Z,40.33
2023-03-08T16:52:45.552Z,47.43
2023-03-08T16:55:12.415Z,45.80
2023-03-08T16:57:40.275Z,41.57
2023-03-08T17:00:10.114Z,42.80
2023-03-08T17:02:36.941Z,37.87
2023-03-08T17:05:04.839Z,46.80
2023-03-08T17:07:31.593Z,49.57
2023-03-08T17:09:58.920Z,48.33
2023-03-08T17:12:25.699Z,44.93
2023-03-08T17:14:52.574Z,52.43
2023-03-08T17:17:19.333Z,50.87
2023-03-08T17:19:46.416Z,45.57
2023-03-08T17:22:13.363Z,47.00
2023-03-08T17:24:40.216Z,50.50
2023-03-08T17:27:06.970Z,45.80
2023-03-08T17:29:33.785Z,49.23
2023-03-08T17:32:00.585Z,46.60
2023-03-08T17:34:27.617Z,53.97
2023-03-08T17:36:54.410Z,51.77
2023-03-08T17:39:21.281Z,51.53
2023-03-08T17:41:48.091Z,63.00
2023-03-08T17:44:15.591Z,58.80
2023-03-08T17:46:42.554Z,61.97
2023-03-08T17:49:09.308Z,59.53
2023-03-08T17:51:36.082Z,61.87
2023-03-08T17:54:03.362Z,58.07
2023-03-08T17:56:31.840Z,60.23
2023-03-08T17:59:00.340Z,69.67
2023-03-08T18:01:30.148Z,67.17
2023-03-08T18:03:57.969Z,68.67
2023-03-08T18:06:29.516Z,64.90
2023-03-08T18:08:58.062Z,71.10
2023-03-08T18:11:25.540Z,63.10
2023-03-08T18:13:53.065Z,60.93
2023-03-08T18:16:21.196Z,70.93
2023-03-08T18:18:50.260Z,65.40
2023-03-08T18:21:18.389Z,70.30
2023-03-08T18:23:46.632Z,61.77
2023-03-08T18:26:15.286Z,72.67
2023-03-08T18:28:42.561Z,63.90
2023-03-08T18:31:11.759Z,61.57
2023-03-08T18:33:38.769Z,52.13
2023-03-08T18:36:06.033Z,63.47
2023-03-08T18:38:33.149Z,59.40
2023-03-08T18:41:00.280Z,57.67
2023-03-08T18:43:27.028Z,62.70
2023-03-08T18:45:56.323Z,56.53
2023-03-08T18:48:24.494Z,58.20
2023-03-08T18:50:51.217Z,64.50
2023-03-08T18:53:18.264Z,56.60
2023-03-08T18:55:58.986Z,62.90
2023-03-08T18:58:40.353Z,74.23
2023-03-08T19:01:13.041Z,63.97
2023-03-08T19:03:40.171Z,69.00
2023-03-08T19:06:07.234Z,72.97
2023-03-08T19:08:34.002Z,75.30
2023-03-08T19:11:13.815Z,65.50
2023-03-08T19:13:41.828Z,66.40
2023-03-08T19:16:23.499Z,65.40
2023-03-08T19:18:54.048Z,75.43
2023-03-08T19:21:24.179Z,83.77
2023-03-08T19:23:51.314Z,73.30
2023-03-08T19:26:39.722Z,85.97
2023-03-08T19:29:21.710Z,74.03
2023-03-08T19:32:00.260Z,79.63
2023-03-08T19:34:28.360Z,89.67
2023-03-08T19:36:55.717Z,78.50
2023-03-08T19:39:26.108Z,75.93
2023-03-08T19:41:55.651Z,69.13
2023-03-08T19:44:23.062Z,75.60
2023-03-08T19:46:50.704Z,76.57
2023-03-08T19:49:19.906Z,75.80
2023-03-08T19:51:48.654Z,68.63
2023-03-08T19:54:15.565Z,74.73
2023-03-08T19:56:42.534Z,80.60
2023-03-08T19:59:09.845Z,74.23
2023-03-08T20:01:37.523Z,82.57
2023-03-08T20:04:04.772Z,68.90
2023-03-08T20:06:34.849Z,76.37
2023-03-08T20:09:03.290Z,84.17
2023-03-08T20:11:30.375Z,84.23
2023-03-08T20:13:57.311Z,74.80
2023-03-08T20:16:26.266Z,69.60
2023-03-08T20:18:55.479Z,79.03
2023-03-08T20:21:24.163Z,78.87
2023-03-08T20:23:55.300Z,79.90
2023-03-08T20:26:23.630Z,74.67
2023-03-08T20:28:51.046Z,78.97
2023-03-08T20:31:18.842Z,82.67
2023-03-08T20:33:46.284Z,80.47
2023-03-08T20:36:13.047Z,79.60
2023-03-08T20:38:39.915Z,76.27
2023-03-08T20:41:15.936Z,86.20
2023-03-08T20:43:44.268Z,94.63
2023-03-08T20:46:13.438Z,75.10
2023-03-08T20:48:41.628Z,85.97
2023-03-08T20:51:11.129Z,84.63
2023-03-08T20:53:39.043Z,76.33
2023-03-08T20:56:16.759Z,81.63
2023-03-08T20:58:43.842Z,77.20
2023-03-08T21:01:16.312Z,88.60
2023-03-08T21:03:43.848Z,78.33
2023-03-08T21:06:17.105Z,86.80
2023-03-08T21:08:43.837Z,80.07
2023-03-08T21:11:10.985Z,92.13
2023-03-08T21:13:37.928Z,84.03
2023-03-08T21:16:10.849Z,98.17
2023-03-08T21:18:37.678Z,86.93
2023-03-08T21:21:04.628Z,93.43
2023-03-08T21:23:31.606Z,99.03
2023-03-08T21:26:01.690Z,89.97
2023-03-08T21:28:28.477Z,88.23
2023-03-08T21:30:55.354Z,86.60
2023-03-08T21:33:22.186Z,88.23
2023-03-08T21:35:48.954Z,85.67
2023-03-08T21:38:15.750Z,95.00
2023-03-08T21:40:43.665Z,88.97
2023-03-08T21:43:10.812Z,87.00
2023-03-08T21:45:41.935Z,92.30
2023-03-08T21:48:10.792Z,86.67
2023-03-08T21:50:41.039Z,81.67
2023-03-08T21:53:08.360Z,87.53
2023-03-08T21:55:38.650Z,78.47
2023-03-08T21:58:05.755Z,84.93
2023-03-08T22:00:32.675Z,96.30
2023-03-08T22:02:59.466Z,78.07
2023-03-08T22:05:26.435Z,77.60
2023-03-08T22:07:53.181Z,83.07
2023-03-08T22:10:20.361Z,87.10
2023-03-08T22:12:47.515Z,86.97
2023-03-08T22:15:15.888Z,91.03
2023-03-08T22:17:42.939Z,83.83
2023-03-08T22:20:10.881Z,80.60
2023-03-08T22:22:38.916Z,84.40
2023-03-08T22:25:07.320Z,87.77
2023-03-08T22:27:34.830Z,72.07
2023-03-08T22:30:02.520Z,96.30
2023-03-08T22:32:29.550Z,81.03
2023-03-08T22:34:56.491Z,79.03
2023-03-08T22:37:23.313Z,90.37
2023-03-08T22:39:50.183Z,86.87
2023-03-08T22:42:17.106Z,94.33
2023-03-08T22:44:43.872Z,87.03
2023-03-08T22:47:10.625Z,85.03
2023-03-08T22:49:37.487Z,79.17
2023-03-08T22:52:04.805Z,76.83
2023-03-08T22:54:31.806Z,71.37
2023-03-08T22:56:58.964Z,80.63
2023-03-08T22:59:25.990Z,78.63
2023-03-08T23:01:54.129Z,76.33
2023-03-08T23:04:21.319Z,68.10
2023-03-08T23:06:48.290Z,72.50
2023-03-08T23:09:15.765Z,77.10
2023-03-08T23:11:43.099Z,73.70
2023-03-08T23:14:10.391Z,64.50
2023-03-08T23:16:41.494Z,62.97
2023-03-08T23:19:10.941Z,60.00
2023-03-08T23:21:38.268Z,63.57
2023-03-08T23:26:46.396Z,61.33
2023-03-08T23:29:15.030Z,54.57
2023-03-08T23:31:44.896Z,60.47
2023-03-08T23:34:12.206Z,71.23
2023-03-08T23:36:39.126Z,57.23
2023-03-08T23:39:05.860Z,63.27
2023-03-08T23:41:33.030Z,63.97
2023-03-08T23:44:01.392Z,65.43
2023-03-08T23:46:29.068Z,71.13
2023-03-08T23:48:57.643Z,67.30
2023-03-08T23:51:26.320Z,71.30
2023-03-08T23:53:55.150Z,74.03
2023-03-08T23:56:37.700Z,61.97
2023-03-08T23:59:24.954Z,62.20
